sensor_id;sensor_type;location;lat;lon;timestamp;pressure;altitude;pressure_sealevel;temperature;humidity
4972;BME280;2501;51.214;6.768;2023-10-31T00:01:59;99344.00;;;11.47;100.00
4972;BME280;2501;51.214;6.768;2023-10-31T00:04:27;99346.63;;;11.47;100.00
4972;BME280;2501;51.214;6.768;2023-10-31T00:06:56;99349.28;;;11.45;100.00
4972;BME280;2501;51.214;6.768;2023-10-31T00:09:25;99358.09;;;11.43;100.00
4972;BME280;2501;51.214;6.768;2023-10-31T00:11:56;99366.81;;;11.43;100.00
4972;BME280;2501;51.214;6.768;2023-10-31T00:14:24;99379.25;;;11.35;100.00
4972;BME280;2501;51.214;6.768;2023-10-31T00:16:53;99387.16;;;11.34;100.00
4972;BME280;2501;51.214;6.768;2023-10-31T00:19:21;99382.75;;;11.36;100.00
4972;BME280;2501;51.214;6.768;2023-10-31T00:21:50;99394.09;;;11.38;100.00
4972;BME280;2501;51.214;6.768;2023-10-31T00:24:18;99410.88;;;11.28;100.00
4972;BME280;2501;51.214;6.768;2023-10-31T00:26:47;99406.38;;;11.36;100.00
4972;BME280;2501;51.214;6.768;2023-10-31T00:29:18;99412.84;;;11.16;100.00
4972;BME280;2501;51.214;6.768;2023-10-31T00:31:46;99420.75;;;11.13;100.00
4972;BME280;2501;51.214;6.768;2023-10-31T00:34:15;99429.41;;;11.20;100.00
4972;BME280;2501;51.214;6.768;2023-10-31T00:36:43;99430.28;;;11.21;100.00
4972;BME280;2501;51.214;6.768;2023-10-31T00:39:12;99432.09;;;11.17;100.00
4972;BME280;2501;51.214;6.768;2023-10-31T00:41:43;99425.31;;;11.04;100.00
4972;BME280;2501;51.214;6.768;2023-10-31T00:44:12;99438.88;;;11.27;100.00
4972;BME280;2501;51.214;6.768;2023-10-31T00:46:44;99435.53;;;11.21;100.00
4972;BME280;2501;51.214;6.768;2023-10-31T00:49:12;99433.84;;;11.16;100.00
4972;BME280;2501;51.214;6.768;2023-10-31T00:51:41;99441.66;;;11.20;100.00
4972;BME280;2501;51.214;6.768;2023-10-31T00:54:09;99453.75;;;11.28;100.00
4972;BME280;2501;51.214;6.768;2023-10-31T00:56:37;99459.19;;;11.18;100.00
4972;BME280;2501;51.214;6.768;2023-10-31T00:59:06;99448.06;;;11.03;100.00
4972;BME280;2501;51.214;6.768;2023-10-31T01:01:34;99461.88;;;11.13;100.00
4972;BME280;2501;51.214;6.768;2023-10-31T01:04:05;99473.16;;;11.20;100.00
4972;BME280;2501;51.214;6.768;2023-10-31T01:06:34;99476.19;;;10.94;100.00
4972;BME280;2501;51.214;6.768;2023-10-31T01:09:07;99479.69;;;10.93;100.00
4972;BME280;2501;51.214;6.768;2023-10-31T01:11:36;99481.34;;;11.00;100.00
4972;BME280;2501;51.214;6.768;2023-10-31T01:14:05;99487.50;;;10.97;100.00
4972;BME280;2501;51.214;6.768;2023-10-31T01:16:33;99486.88;;;10.83;100.00
4972;BME280;2501;51.214;6.768;2023-10-31T01:19:02;99488.38;;;10.98;100.00
4972;BME280;2501;51.214;6.768;2023-10-31T01:21:33;99485.47;;;11.14;100.00
4972;BME280;2501;51.214;6.768;2023-10-31T01:24:01;99496.72;;;11.23;100.00
4972;BME280;2501;51.214;6.768;2023-10-31T01:26:30;99496.72;;;11.23;100.00
4972;BME280;2501;51.214;6.768;2023-10-31T01:28:58;99488.03;;;11.19;100.00
4972;BME280;2501;51.214;6.768;2023-10-31T01:31:26;99484.69;;;11.09;100.00
4972;BME280;2501;51.214;6.768;2023-10-31T01:33:55;99479.56;;;11.02;100.00
4972;BME280;2501;51.214;6.768;2023-10-31T01:36:24;99488.84;;;11.23;100.00
4972;BME280;2501;51.214;6.768;2023-10-31T01:38:55;99498.47;;;11.24;100.00
4972;BME280;2501;51.214;6.768;2023-10-31T01:41:24;99495.72;;;11.30;100.00
4972;BME280;2501;51.214;6.768;2023-10-31T01:43:52;99491.34;;;11.29;100.00
4972;BME280;2501;51.214;6.768;2023-10-31T01:46:21;99506.53;;;11.10;100.00
4972;BME280;2501;51.214;6.768;2023-10-31T01:48:49;99503.53;;;10.79;100.00
4972;BME280;2501;51.214;6.768;2023-10-31T01:51:18;99514.31;;;11.18;100.00
4972;BME280;2501;51.214;6.768;2023-10-31T01:53:47;99505.75;;;11.06;100.00
4972;BME280;2501;51.214;6.768;2023-10-31T01:56:18;99515.22;;;11.13;100.00
4972;BME280;2501;51.214;6.768;2023-10-31T01:58:48;99508.22;;;11.14;100.00
4972;BME280;2501;51.214;6.768;2023-10-31T02:01:18;99510.25;;;10.97;100.00
4972;BME280;2501;51.214;6.768;2023-10-31T02:03:47;99511.13;;;10.96;100.00
4972;BME280;2501;51.214;6.768;2023-10-31T02:06:15;99510.69;;;11.25;100.00
4972;BME280;2501;51.214;6.768;2023-10-31T02:08:44;99506.75;;;10.98;100.00
4972;BME280;2501;51.214;6.768;2023-10-31T02:11:12;99506.72;;;10.99;100.00
4972;BME280;2501;51.214;6.768;2023-10-31T02:13:43;99497.66;;;11.19;100.00
4972;BME280;2501;51.214;6.768;2023-10-31T02:16:12;99501.63;;;10.90;100.00
4972;BME280;2501;51.214;6.768;2023-10-31T02:18:41;99510.81;;;10.59;100.00
4972;BME280;2501;51.214;6.768;2023-10-31T02:21:09;99508.78;;;10.77;100.00
4972;BME280;2501;51.214;6.768;2023-10-31T02:23:40;99510.00;;;11.12;100.00
4972;BME280;2501;51.214;6.768;2023-10-31T02:26:08;99506.00;;;10.90;100.00
4972;BME280;2501;51.214;6.768;2023-10-31T02:28:37;99504.06;;;11.01;100.00
4972;BME280;2501;51.214;6.768;2023-10-31T02:31:06;99504.50;;;10.73;100.00
4972;BME280;2501;51.214;6.768;2023-10-31T02:33:37;99500.78;;;10.88;100.00
4972;BME280;2501;51.214;6.768;2023-10-31T02:36:06;99505.84;;;11.00;100.00
4972;BME280;2501;51.214;6.768;2023-10-31T02:38:35;99500.53;;;11.03;100.00
4972;BME280;2501;51.214;6.768;2023-10-31T02:41:06;99506.56;;;11.08;100.00
4972;BME280;2501;51.214;6.768;2023-10-31T02:43:34;99502.50;;;10.89;100.00
4972;BME280;2501;51.214;6.768;2023-10-31T02:46:03;99515.28;;;10.54;100.00
4972;BME280;2501;51.214;6.768;2023-10-31T02:48:31;99509.31;;;11.01;100.00
4972;BME280;2501;51.214;6.768;2023-10-31T02:51:04;99513.06;;;10.86;100.00
4972;BME280;2501;51.214;6.768;2023-10-31T02:53:33;99519.47;;;10.65;100.00
4972;BME280;2501;51.214;6.768;2023-10-31T02:56:02;99519.59;;;10.56;100.00
4972;BME280;2501;51.214;6.768;2023-10-31T02:58:33;99515.50;;;10.97;100.00
4972;BME280;2501;51.214;6.768;2023-10-31T03:01:01;99516.63;;;10.79;100.00
4972;BME280;2501;51.214;6.768;2023-10-31T03:03:29;99518.03;;;11.03;100.00
4972;BME280;2501;51.214;6.768;2023-10-31T03:05:58;99526.00;;;10.97;100.00
4972;BME280;2501;51.214;6.768;2023-10-31T03:08:26;99519.38;;;10.73;100.00
4972;BME280;2501;51.214;6.768;2023-10-31T03:10:55;99524.88;;;10.55;100.00
4972;BME280;2501;51.214;6.768;2023-10-31T03:13:23;99525.28;;;10.87;100.00
4972;BME280;2501;51.214;6.768;2023-10-31T03:15:54;99530.97;;;10.55;100.00
4972;BME280;2501;51.214;6.768;2023-10-31T03:18:23;99528.41;;;10.51;100.00
4972;BME280;2501;51.214;6.768;2023-10-31T03:20:51;99536.69;;;10.83;100.00
4972;BME280;2501;51.214;6.768;2023-10-31T03:23:20;99543.22;;;10.55;100.00
4972;BME280;2501;51.214;6.768;2023-10-31T03:25:48;99545.00;;;10.53;100.00
4972;BME280;2501;51.214;6.768;2023-10-31T03:28:18;99541.50;;;10.52;100.00
4972;BME280;2501;51.214;6.768;2023-10-31T03:30:48;99541.50;;;10.52;100.00
4972;BME280;2501;51.214;6.768;2023-10-31T03:33:19;99540.50;;;10.59;100.00
4972;BME280;2501;51.214;6.768;2023-10-31T03:35:48;99547.47;;;10.62;100.00
4972;BME280;2501;51.214;6.768;2023-10-31T03:38:16;99545.75;;;10.59;100.00
4972;BME280;2501;51.214;6.768;2023-10-31T03:40:45;99540.50;;;10.61;100.00
4972;BME280;2501;51.214;6.768;2023-10-31T03:43:13;99544.84;;;10.63;100.00
4972;BME280;2501;51.214;6.768;2023-10-31T03:45:42;99540.59;;;10.55;100.00
4972;BME280;2501;51.214;6.768;2023-10-31T03:48:10;99546.59;;;10.63;100.00
4972;BME280;2501;51.214;6.768;2023-10-31T03:50:42;99547.63;;;10.51;100.00
4972;BME280;2501;51.214;6.768;2023-10-31T03:53:10;99543.16;;;10.58;100.00
4972;BME280;2501;51.214;6.768;2023-10-31T03:55:39;99551.88;;;10.58;100.00
4972;BME280;2501;51.214;6.768;2023-10-31T03:58:07;99560.31;;;10.81;100.00
4972;BME280;2501;51.214;6.768;2023-10-31T04:00:36;99562.13;;;10.78;100.00
4972;BME280;2501;51.214;6.768;2023-10-31T04:03:04;99565.84;;;10.60;100.00
4972;BME280;2501;51.214;6.768;2023-10-31T04:05:32;99571.69;;;10.82;100.00
4972;BME280;2501;51.214;6.768;2023-10-31T04:08:04;99572.63;;;10.75;100.00
4972;BME280;2501;51.214;6.768;2023-10-31T04:10:32;99569.44;;;10.56;100.00
4972;BME280;2501;51.214;6.768;2023-10-31T04:13:01;99567.22;;;10.89;100.00
4972;BME280;2501;51.214;6.768;2023-10-31T04:15:29;99577.94;;;10.73;100.00
4972;BME280;2501;51.214;6.768;2023-10-31T04:18:00;99577.31;;;10.53;100.00
4972;BME280;2501;51.214;6.768;2023-10-31T04:20:29;99580.72;;;10.58;100.00
4972;BME280;2501;51.214;6.768;2023-10-31T04:22:57;99578.91;;;10.65;100.00
4972;BME280;2501;51.214;6.768;2023-10-31T04:25:28;99572.13;;;10.49;100.00
4972;BME280;2501;51.214;6.768;2023-10-31T04:27:56;99588.69;;;10.54;100.00
4972;BME280;2501;51.214;6.768;2023-10-31T04:30:25;99589.81;;;10.99;100.00
4972;BME280;2501;51.214;6.768;2023-10-31T04:32:54;99591.06;;;10.73;100.00
4972;BME280;2501;51.214;6.768;2023-10-31T04:35:23;99598.84;;;10.78;100.00
4972;BME280;2501;51.214;6.768;2023-10-31T04:37:51;99602.22;;;10.88;100.00
4972;BME280;2501;51.214;6.768;2023-10-31T04:40:19;99603.53;;;11.18;100.00
4972;BME280;2501;51.214;6.768;2023-10-31T04:42:51;99603.88;;;10.93;100.00
4972;BME280;2501;51.214;6.768;2023-10-31T04:45:19;99604.69;;;10.97;100.00
4972;BME280;2501;51.214;6.768;2023-10-31T04:47:47;99603.34;;;11.28;100.00
4972;BME280;2501;51.214;6.768;2023-10-31T04:50:16;99609.19;;;10.89;100.00
4972;BME280;2501;51.214;6.768;2023-10-31T04:52:44;99615.41;;;10.80;100.00
4972;BME280;2501;51.214;6.768;2023-10-31T04:55:13;99613.38;;;11.02;100.00
4972;BME280;2501;51.214;6.768;2023-10-31T04:57:41;99614.09;;;11.11;100.00
4972;BME280;2501;51.214;6.768;2023-10-31T05:00:13;99621.56;;;10.79;100.00
4972;BME280;2501;51.214;6.768;2023-10-31T05:02:42;99619.56;;;10.98;100.00
4972;BME280;2501;51.214;6.768;2023-10-31T05:05:10;99625.50;;;11.09;100.00
4972;BME280;2501;51.214;6.768;2023-10-31T05:07:38;99627.34;;;11.05;100.00
4972;BME280;2501;51.214;6.768;2023-10-31T05:10:08;99625.50;;;11.10;100.00
4972;BME280;2501;51.214;6.768;2023-10-31T05:12:36;99633.31;;;11.15;100.00
4972;BME280;2501;51.214;6.768;2023-10-31T05:15:06;99631.81;;;10.97;100.00
4972;BME280;2501;51.214;6.768;2023-10-31T05:17:38;99633.72;;;10.85;100.00
4972;BME280;2501;51.214;6.768;2023-10-31T05:20:07;99645.06;;;10.88;100.00
4972;BME280;2501;51.214;6.768;2023-10-31T05:22:36;99639.03;;;10.78;100.00
4972;BME280;2501;51.214;6.768;2023-10-31T05:25:05;99640.59;;;10.92;100.00
4972;BME280;2501;51.214;6.768;2023-10-31T05:27:33;99644.00;;;11.00;100.00
4972;BME280;2501;51.214;6.768;2023-10-31T05:30:03;99644.84;;;11.03;100.00
4972;BME280;2501;51.214;6.768;2023-10-31T05:32:31;99651.22;;;10.86;100.00
4972;BME280;2501;51.214;6.768;2023-10-31T05:35:03;99648.69;;;10.76;100.00
4972;BME280;2501;51.214;6.768;2023-10-31T05:37:31;99656.44;;;10.86;100.00
4972;BME280;2501;51.214;6.768;2023-10-31T05:40:00;99652.09;;;10.83;100.00
4972;BME280;2501;51.214;6.768;2023-10-31T05:42:28;99659.13;;;10.81;100.00
4972;BME280;2501;51.214;6.768;2023-10-31T05:44:57;99671.47;;;10.73;100.00
4972;BME280;2501;51.214;6.768;2023-10-31T05:47:25;99672.50;;;10.57;100.00
4972;BME280;2501;51.214;6.768;2023-10-31T05:49:53;99675.50;;;10.23;100.00
4972;BME280;2501;51.214;6.768;2023-10-31T05:52:27;99671.88;;;10.36;100.00
4972;BME280;2501;51.214;6.768;2023-10-31T05:54:57;99672.00;;;10.23;100.00
4972;BME280;2501;51.214;6.768;2023-10-31T05:57:26;99680.72;;;10.25;100.00
4972;BME280;2501;51.214;6.768;2023-10-31T05:59:54;99685.03;;;10.30;100.00
4972;BME280;2501;51.214;6.768;2023-10-31T06:02:22;99695.63;;;10.20;100.00
4972;BME280;2501;51.214;6.768;2023-10-31T06:04:51;99696.34;;;10.38;100.00
4972;BME280;2501;51.214;6.768;2023-10-31T06:07:19;99703.38;;;10.30;100.00
4972;BME280;2501;51.214;6.768;2023-10-31T06:09:50;99702.66;;;10.11;100.00
4972;BME280;2501;51.214;6.768;2023-10-31T06:12:18;99709.53;;;10.28;100.00
4972;BME280;2501;51.214;6.768;2023-10-31T06:14:47;99712.97;;;10.34;100.00
4972;BME280;2501;51.214;6.768;2023-10-31T06:17:15;99731.34;;;10.31;100.00
4972;BME280;2501;51.214;6.768;2023-10-31T06:19:44;99723.44;;;10.37;100.00
4972;BME280;2501;51.214;6.768;2023-10-31T06:22:13;99724.34;;;10.30;100.00
4972;BME280;2501;51.214;6.768;2023-10-31T06:24:41;99727.72;;;10.41;100.00
4972;BME280;2501;51.214;6.768;2023-10-31T06:27:12;99726.88;;;10.39;100.00
4972;BME280;2501;51.214;6.768;2023-10-31T06:29:41;99735.84;;;10.12;100.00
4972;BME280;2501;51.214;6.768;2023-10-31T06:32:09;99734.72;;;10.41;100.00
4972;BME280;2501;51.214;6.768;2023-10-31T06:34:38;99740.84;;;10.41;100.00
4972;BME280;2501;51.214;6.768;2023-10-31T06:37:06;99749.66;;;10.36;100.00
4972;BME280;2501;51.214;6.768;2023-10-31T06:39:34;99746.91;;;10.46;100.00
4972;BME280;2501;51.214;6.768;2023-10-31T06:42:03;99753.84;;;10.54;100.00
4972;BME280;2501;51.214;6.768;2023-10-31T06:44:34;99753.94;;;10.40;100.00
4972;BME280;2501;51.214;6.768;2023-10-31T06:47:03;99758.28;;;10.44;100.00
4972;BME280;2501;51.214;6.768;2023-10-31T06:49:32;99770.53;;;10.45;100.00
4972;BME280;2501;51.214;6.768;2023-10-31T06:52:02;99767.88;;;10.46;100.00
4972;BME280;2501;51.214;6.768;2023-10-31T06:54:31;99773.00;;;10.57;100.00
4972;BME280;2501;51.214;6.768;2023-10-31T06:57:00;99767.66;;;10.71;100.00
4972;BME280;2501;51.214;6.768;2023-10-31T06:59:29;99771.34;;;10.52;100.00
4972;BME280;2501;51.214;6.768;2023-10-31T07:02:00;99772.34;;;10.38;100.00
4972;BME280;2501;51.214;6.768;2023-10-31T07:04:29;99777.31;;;10.64;100.00
4972;BME280;2501;51.214;6.768;2023-10-31T07:06:57;99776.56;;;10.55;100.00
4972;BME280;2501;51.214;6.768;2023-10-31T07:09:26;99771.53;;;10.30;100.00
4972;BME280;2501;51.214;6.768;2023-10-31T07:11:55;99775.91;;;10.28;100.00
4972;BME280;2501;51.214;6.768;2023-10-31T07:14:23;99780.28;;;10.26;100.00
4972;BME280;2501;51.214;6.768;2023-10-31T07:16:52;99780.31;;;10.22;100.00
4972;BME280;2501;51.214;6.768;2023-10-31T07:19:23;99779.13;;;10.58;100.00
4972;BME280;2501;51.214;6.768;2023-10-31T07:21:51;99782.03;;;10.29;100.00
4972;BME280;2501;51.214;6.768;2023-10-31T07:24:19;99780.38;;;10.20;100.00
4972;BME280;2501;51.214;6.768;2023-10-31T07:26:48;99787.28;;;10.24;100.00
4972;BME280;2501;51.214;6.768;2023-10-31T07:29:14;99781.88;;;10.45;100.00
4972;BME280;2501;51.214;6.768;2023-10-31T07:31:42;99791.16;;;10.78;100.00
4972;BME280;2501;51.214;6.768;2023-10-31T07:34:11;99794.06;;;10.53;100.00
4972;BME280;2501;51.214;6.768;2023-10-31T07:36:41;99795.63;;;10.70;100.00
4972;BME280;2501;51.214;6.768;2023-10-31T07:39:10;99813.88;;;10.81;100.00
4972;BME280;2501;51.214;6.768;2023-10-31T07:41:39;99817.34;;;10.85;100.00
4972;BME280;2501;51.214;6.768;2023-10-31T07:44:08;99812.94;;;10.90;100.00
4972;BME280;2501;51.214;6.768;2023-10-31T07:46:37;99815.56;;;10.90;100.00
4972;BME280;2501;51.214;6.768;2023-10-31T07:49:05;99805.78;;;11.02;100.00
4972;BME280;2501;51.214;6.768;2023-10-31T07:51:34;99809.19;;;11.09;100.00
4972;BME280;2501;51.214;6.768;2023-10-31T07:54:06;99811.88;;;11.07;100.00
4972;BME280;2501;51.214;6.768;2023-10-31T07:56:35;99818.91;;;11.04;100.00
4972;BME280;2501;51.214;6.768;2023-10-31T07:59:05;99813.56;;;11.08;100.00
4972;BME280;2501;51.214;6.768;2023-10-31T08:01:34;99812.88;;;10.91;100.00
4972;BME280;2501;51.214;6.768;2023-10-31T08:04:02;99822.28;;;11.13;100.00
4972;BME280;2501;51.214;6.768;2023-10-31T08:06:31;99824.03;;;11.13;100.00
4972;BME280;2501;51.214;6.768;2023-10-31T08:08:59;99838.03;;;11.10;100.00
4972;BME280;2501;51.214;6.768;2023-10-31T08:11:31;99832.06;;;10.98;100.00
4972;BME280;2501;51.214;6.768;2023-10-31T08:14:00;99830.81;;;11.32;100.00
4972;BME280;2501;51.214;6.768;2023-10-31T08:16:29;99835.31;;;11.23;100.00
4972;BME280;2501;51.214;6.768;2023-10-31T08:18:57;99836.75;;;11.46;100.00
4972;BME280;2501;51.214;6.768;2023-10-31T08:21:26;99836.84;;;11.42;100.00
4972;BME280;2501;51.214;6.768;2023-10-31T08:24:04;99833.22;;;11.49;100.00
4972;BME280;2501;51.214;6.768;2023-10-31T08:26:36;99840.34;;;11.41;100.00
4972;BME280;2501;51.214;6.768;2023-10-31T08:29:05;99854.78;;;11.75;100.00
4972;BME280;2501;51.214;6.768;2023-10-31T08:31:33;99850.22;;;11.93;100.00
4972;BME280;2501;51.214;6.768;2023-10-31T08:34:02;99849.25;;;11.97;100.00
4972;BME280;2501;51.214;6.768;2023-10-31T08:36:30;99853.09;;;11.70;100.00
4972;BME280;2501;51.214;6.768;2023-10-31T08:38:58;99853.84;;;11.82;100.00
4972;BME280;2501;51.214;6.768;2023-10-31T08:41:27;99854.72;;;11.81;100.00
4972;BME280;2501;51.214;6.768;2023-10-31T08:43:58;99863.44;;;11.83;100.00
4972;BME280;2501;51.214;6.768;2023-10-31T08:46:26;99863.44;;;11.83;100.00
4972;BME280;2501;51.214;6.768;2023-10-31T08:48:55;99860.41;;;11.45;100.00
4972;BME280;2501;51.214;6.768;2023-10-31T08:51:23;99866.41;;;11.56;100.00
4972;BME280;2501;51.214;6.768;2023-10-31T08:53:52;99873.19;;;11.74;100.00
4972;BME280;2501;51.214;6.768;2023-10-31T08:56:20;99875.16;;;11.57;100.00
4972;BME280;2501;51.214;6.768;2023-10-31T08:58:49;99874.34;;;11.50;100.00
4972;BME280;2501;51.214;6.768;2023-10-31T09:01:20;99873.47;;;11.51;100.00
4972;BME280;2501;51.214;6.768;2023-10-31T09:03:48;99875.75;;;11.05;100.00
4972;BME280;2501;51.214;6.768;2023-10-31T09:06:17;99884.34;;;11.19;100.00
4972;BME280;2501;51.214;6.768;2023-10-31T09:08:45;99885.03;;;11.36;100.00
4972;BME280;2501;51.214;6.768;2023-10-31T09:11:14;99882.22;;;11.50;100.00
4972;BME280;2501;51.214;6.768;2023-10-31T09:13:42;99883.97;;;11.51;100.00
4972;BME280;2501;51.214;6.768;2023-10-31T09:16:11;99886.63;;;11.49;100.00
4972;BME280;2501;51.214;6.768;2023-10-31T09:18:42;99888.22;;;11.61;100.00
4972;BME280;2501;51.214;6.768;2023-10-31T09:21:12;99896.78;;;11.80;100.00
4972;BME280;2501;51.214;6.768;2023-10-31T09:23:40;99901.63;;;11.40;100.00
4972;BME280;2501;51.214;6.768;2023-10-31T09:26:09;99909.38;;;11.49;100.00
4972;BME280;2501;51.214;6.768;2023-10-31T09:28:37;99907.81;;;12.08;100.00
4972;BME280;2501;51.214;6.768;2023-10-31T09:31:14;99908.41;;;12.28;100.00
4972;BME280;2501;51.214;6.768;2023-10-31T09:33:46;99923.47;;;12.14;100.00
4972;BME280;2501;51.214;6.768;2023-10-31T09:36:14;99927.13;;;12.04;100.00
4972;BME280;2501;51.214;6.768;2023-10-31T09:38:43;99924.66;;;12.53;100.00
4972;BME280;2501;51.214;6.768;2023-10-31T09:41:12;99937.56;;;12.11;100.00
4972;BME280;2501;51.214;6.768;2023-10-31T09:43:41;99948.25;;;12.59;100.00
4972;BME280;2501;51.214;6.768;2023-10-31T09:46:10;99943.72;;;12.69;100.00
4972;BME280;2501;51.214;6.768;2023-10-31T09:48:41;99950.94;;;12.56;100.00
4972;BME280;2501;51.214;6.768;2023-10-31T09:51:12;99942.94;;;13.17;100.00
4972;BME280;2501;51.214;6.768;2023-10-31T09:53:44;99949.31;;;13.01;100.00
4972;BME280;2501;51.214;6.768;2023-10-31T09:56:14;99947.13;;;12.77;100.00
4972;BME280;2501;51.214;6.768;2023-10-31T09:58:43;99957.66;;;12.75;100.00
4972;BME280;2501;51.214;6.768;2023-10-31T10:01:12;99955.78;;;12.82;100.00
4972;BME280;2501;51.214;6.768;2023-10-31T10:03:41;99960.25;;;12.78;100.00
4972;BME280;2501;51.214;6.768;2023-10-31T10:06:13;99962.63;;;12.94;100.00
4972;BME280;2501;51.214;6.768;2023-10-31T10:08:46;99972.09;;;13.04;100.00
4972;BME280;2501;51.214;6.768;2023-10-31T10:11:15;99970.50;;;12.95;100.00
4972;BME280;2501;51.214;6.768;2023-10-31T10:13:44;99979.38;;;12.88;100.00
4972;BME280;2501;51.214;6.768;2023-10-31T10:16:13;99990.59;;;12.99;100.00
4972;BME280;2501;51.214;6.768;2023-10-31T10:18:41;99992.00;;;13.23;100.00
4972;BME280;2501;51.214;6.768;2023-10-31T10:21:13;99991.59;;;12.94;99.67
4972;BME280;2501;51.214;6.768;2023-10-31T10:23:46;99993.22;;;12.99;100.00
4972;BME280;2501;51.214;6.768;2023-10-31T10:26:15;99997.50;;;13.08;100.00
4972;BME280;2501;51.214;6.768;2023-10-31T10:28:46;99997.47;;;13.09;100.00
4972;BME280;2501;51.214;6.768;2023-10-31T10:31:15;100001.56;;;13.29;99.21
4972;BME280;2501;51.214;6.768;2023-10-31T10:33:45;100000.44;;;13.43;98.56
4972;BME280;2501;51.214;6.768;2023-10-31T10:36:16;100002.00;;;13.52;96.42
4972;BME280;2501;51.214;6.768;2023-10-31T10:38:46;100005.34;;;13.63;96.89
4972;BME280;2501;51.214;6.768;2023-10-31T10:41:19;100017.72;;;13.58;95.39
4972;BME280;2501;51.214;6.768;2023-10-31T10:43:50;100012.50;;;13.55;95.04
4972;BME280;2501;51.214;6.768;2023-10-31T10:46:24;100015.91;;;13.08;97.59
4972;BME280;2501;51.214;6.768;2023-10-31T10:48:55;100018.63;;;13.57;95.90
4972;BME280;2501;51.214;6.768;2023-10-31T10:51:29;100008.59;;;13.76;94.49
4972;BME280;2501;51.214;6.768;2023-10-31T10:54:03;100009.13;;;13.94;91.38
4972;BME280;2501;51.214;6.768;2023-10-31T10:56:38;100012.75;;;13.89;91.60
4972;BME280;2501;51.214;6.768;2023-10-31T10:59:13;100012.63;;;13.95;91.36
4972;BME280;2501;51.214;6.768;2023-10-31T11:01:46;100014.72;;;14.21;87.73
4972;BME280;2501;51.214;6.768;2023-10-31T11:04:15;100018.69;;;14.00;86.95
4972;BME280;2501;51.214;6.768;2023-10-31T11:06:47;100015.09;;;14.03;87.42
4972;BME280;2501;51.214;6.768;2023-10-31T11:09:15;100015.91;;;14.06;87.65
4972;BME280;2501;51.214;6.768;2023-10-31T11:11:45;100017.38;;;14.21;87.02
4972;BME280;2501;51.214;6.768;2023-10-31T11:14:15;100011.97;;;14.27;85.92
4972;BME280;2501;51.214;6.768;2023-10-31T11:16:48;100013.41;;;14.43;83.83
4972;BME280;2501;51.214;6.768;2023-10-31T11:19:19;100013.53;;;14.37;83.74
4972;BME280;2501;51.214;6.768;2023-10-31T11:21:58;100014.19;;;14.05;86.27
4972;BME280;2501;51.214;6.768;2023-10-31T11:24:28;100016.66;;;14.14;87.12
4972;BME280;2501;51.214;6.768;2023-10-31T11:26:59;100017.63;;;14.09;87.27
4972;BME280;2501;51.214;6.768;2023-10-31T11:29:28;100019.66;;;13.96;84.92
4972;BME280;2501;51.214;6.768;2023-10-31T11:31:59;100030.81;;;14.09;87.10
4972;BME280;2501;51.214;6.768;2023-10-31T11:34:28;100029.00;;;14.12;86.85
4972;BME280;2501;51.214;6.768;2023-10-31T11:37:23;100021.69;;;14.25;84.36
4972;BME280;2501;51.214;6.768;2023-10-31T11:40:20;100029.06;;;14.08;86.75
4972;BME280;2501;51.214;6.768;2023-10-31T11:42:50;100030.75;;;14.12;86.08
4972;BME280;2501;51.214;6.768;2023-10-31T11:45:31;100021.09;;;14.11;86.37
4972;BME280;2501;51.214;6.768;2023-10-31T11:48:00;100027.16;;;14.16;86.30
4972;BME280;2501;51.214;6.768;2023-10-31T11:50:30;100035.03;;;14.19;84.77
4972;BME280;2501;51.214;6.768;2023-10-31T11:53:04;100033.53;;;13.58;88.09
4972;BME280;2501;51.214;6.768;2023-10-31T11:55:40;100036.56;;;13.84;86.23
4972;BME280;2501;51.214;6.768;2023-10-31T11:58:16;100039.94;;;13.91;86.66
4972;BME280;2501;51.214;6.768;2023-10-31T12:00:45;100040.59;;;13.56;89.40
4972;BME280;2501;51.214;6.768;2023-10-31T12:03:15;100037.44;;;13.85;87.54
4972;BME280;2501;51.214;6.768;2023-10-31T12:05:54;100045.09;;;13.99;88.17
4972;BME280;2501;51.214;6.768;2023-10-31T12:08:30;100051.56;;;14.25;85.44
4972;BME280;2501;51.214;6.768;2023-10-31T12:11:06;100047.91;;;13.88;85.69
4972;BME280;2501;51.214;6.768;2023-10-31T12:13:36;100056.59;;;13.94;86.21
4972;BME280;2501;51.214;6.768;2023-10-31T12:16:06;100068.16;;;13.86;86.94
4972;BME280;2501;51.214;6.768;2023-10-31T12:18:36;100059.84;;;13.61;89.34
4972;BME280;2501;51.214;6.768;2023-10-31T12:21:05;100061.09;;;13.88;87.98
4972;BME280;2501;51.214;6.768;2023-10-31T12:23:38;100054.34;;;14.19;84.50
4972;BME280;2501;51.214;6.768;2023-10-31T12:26:07;100057.41;;;14.43;83.19
4972;BME280;2501;51.214;6.768;2023-10-31T12:28:36;100059.03;;;14.04;84.46
4972;BME280;2501;51.214;6.768;2023-10-31T12:31:04;100050.88;;;14.17;85.25
4972;BME280;2501;51.214;6.768;2023-10-31T12:33:34;100050.97;;;14.56;82.78
4972;BME280;2501;51.214;6.768;2023-10-31T12:36:03;100060.59;;;14.58;83.12
4972;BME280;2501;51.214;6.768;2023-10-31T12:38:32;100044.34;;;14.35;84.74
4972;BME280;2501;51.214;6.768;2023-10-31T12:41:04;100062.00;;;13.85;87.64
4972;BME280;2501;51.214;6.768;2023-10-31T12:43:34;100061.06;;;14.36;86.08
4972;BME280;2501;51.214;6.768;2023-10-31T12:46:27;100053.34;;;14.68;83.26
4972;BME280;2501;51.214;6.768;2023-10-31T12:48:56;100056.72;;;14.33;81.70
4972;BME280;2501;51.214;6.768;2023-10-31T12:51:25;100056.28;;;14.10;83.88
4972;BME280;2501;51.214;6.768;2023-10-31T12:53:53;100049.50;;;14.83;82.58
4972;BME280;2501;51.214;6.768;2023-10-31T12:56:38;100049.72;;;15.11;78.37
4972;BME280;2501;51.214;6.768;2023-10-31T12:59:08;100050.59;;;14.73;79.79
4972;BME280;2501;51.214;6.768;2023-10-31T13:01:42;100053.63;;;14.94;79.62
4972;BME280;2501;51.214;6.768;2023-10-31T13:04:11;100046.00;;;15.19;78.48
4972;BME280;2501;51.214;6.768;2023-10-31T13:06:39;100051.72;;;15.38;77.75
4972;BME280;2501;51.214;6.768;2023-10-31T13:09:11;100050.75;;;15.05;78.09
4972;BME280;2501;51.214;6.768;2023-10-31T13:11:43;100049.00;;;14.66;80.40
4972;BME280;2501;51.214;6.768;2023-10-31T13:14:14;100046.72;;;14.49;82.71
4972;BME280;2501;51.214;6.768;2023-10-31T13:16:43;100043.66;;;14.25;84.79
4972;BME280;2501;51.214;6.768;2023-10-31T13:19:21;100038.25;;;14.33;84.85
4972;BME280;2501;51.214;6.768;2023-10-31T13:21:51;100045.34;;;14.29;83.87
4972;BME280;2501;51.214;6.768;2023-10-31T13:24:19;100046.38;;;14.21;84.83